createdAt,value
2022-07-26T00:01:48.905Z,100469.50
2022-07-26T00:04:16.519Z,100439.88
2022-07-26T00:06:44.002Z,100437.16
2022-07-26T00:09:11.698Z,100435.53
2022-07-26T00:11:40.587Z,100439.88
2022-07-26T00:14:08.188Z,100431.78
2022-07-26T00:16:35.766Z,100429.94
2022-07-26T00:19:03.475Z,100437.88
2022-07-26T00:21:31.381Z,100443.25
2022-07-26T00:23:58.850Z,100436.81
2022-07-26T00:26:26.307Z,100430.78
2022-07-26T00:28:55.062Z,100421.88
2022-07-26T00:31:22.586Z,100429.94
2022-07-26T00:33:50.071Z,100435.16
2022-07-26T00:36:17.518Z,100440.72
2022-07-26T00:38:44.972Z,100437.00
2022-07-26T00:41:12.422Z,100439.72
2022-07-26T00:43:46.686Z,100437.00
2022-07-26T00:46:15.516Z,100429.09
2022-07-26T00:48:43.058Z,100430.78
2022-07-26T00:51:10.573Z,100419.16
2022-07-26T00:53:38.007Z,100423.69
2022-07-26T00:56:06.136Z,100429.94
2022-07-26T00:58:33.777Z,100423.69
2022-07-26T01:01:01.275Z,100419.16
2022-07-26T01:03:36.474Z,100426.41
2022-07-26T01:06:07.317Z,100428.25
2022-07-26T01:08:34.784Z,100439.03
2022-07-26T01:11:02.255Z,100442.56
2022-07-26T01:13:33.229Z,100439.22
2022-07-26T01:16:03.118Z,100442.56
2022-07-26T01:18:31.942Z,100454.38
2022-07-26T01:20:59.392Z,100467.84
2022-07-26T01:23:28.106Z,100467.03
2022-07-26T01:25:56.471Z,100465.16
2022-07-26T01:28:23.980Z,100467.03
2022-07-26T01:30:51.458Z,100471.56
2022-07-26T01:33:18.981Z,100467.22
2022-07-26T01:35:46.440Z,100467.22
2022-07-26T01:38:13.876Z,100467.22
2022-07-26T01:40:42.608Z,100480.69
2022-07-26T01:43:10.052Z,100478.00
2022-07-26T01:45:38.058Z,100480.88
2022-07-26T01:48:06.191Z,100476.31
2022-07-26T01:50:33.645Z,100478.38
2022-07-26T01:53:01.091Z,100470.69
2022-07-26T01:55:28.530Z,100470.69
2022-07-26T01:57:57.267Z,100486.41
2022-07-26T02:00:24.739Z,100485.56
2022-07-26T02:02:52.339Z,100497.72
2022-07-26T02:05:19.881Z,100491.06
2022-07-26T02:07:47.333Z,100494.41
2022-07-26T02:10:16.033Z,100489.03
2022-07-26T02:12:43.469Z,100486.91
2022-07-26T02:15:13.276Z,100486.84
2022-07-26T02:17:40.764Z,100489.34
2022-07-26T02:20:09.077Z,100478.56
2022-07-26T02:22:36.510Z,100481.50
2022-07-26T02:25:05.410Z,100484.00
2022-07-26T02:27:33.378Z,100487.34
2022-07-26T02:30:01.890Z,100488.13
2022-07-26T02:32:30.658Z,100481.91
2022-07-26T02:34:58.101Z,100489.78
2022-07-26T02:37:25.532Z,100493.91
2022-07-26T02:39:53.341Z,100491.31
2022-07-26T02:42:20.783Z,100494.19
2022-07-26T02:44:48.217Z,100481.78
2022-07-26T02:47:15.649Z,100491.72
2022-07-26T02:49:44.384Z,100482.41
2022-07-26T02:52:11.828Z,100483.44
2022-07-26T02:54:39.282Z,100481.22
2022-07-26T02:57:06.765Z,100484.28
2022-07-26T02:59:34.218Z,100479.09
2022-07-26T03:02:01.774Z,100477.84
2022-07-26T03:04:29.279Z,100478.31
2022-07-26T03:06:58.011Z,100481.47
2022-07-26T03:09:25.465Z,100485.19
2022-07-26T03:11:53.193Z,100479.59
2022-07-26T03:14:20.623Z,100481.47
2022-07-26T03:16:48.068Z,100483.75
2022-07-26T03:19:15.525Z,100486.44
2022-07-26T03:21:42.967Z,100474.41
2022-07-26T03:24:11.902Z,100478.97
2022-07-26T03:26:39.496Z,100474.41
2022-07-26T03:29:06.929Z,100483.50
2022-07-26T03:31:36.126Z,100480.16
2022-07-26T03:34:03.909Z,100484.91
2022-07-26T03:36:31.423Z,100476.41
2022-07-26T03:38:58.863Z,100486.34
2022-07-26T03:41:27.601Z,100477.59
2022-07-26T03:43:55.037Z,100478.63
2022-07-26T03:46:22.511Z,100485.22
2022-07-26T03:48:50.060Z,100499.53
2022-07-26T03:51:17.559Z,100493.28
2022-07-26T03:53:45.001Z,100493.91
2022-07-26T03:56:31.715Z,100498.22
2022-07-26T03:59:01.091Z,100504.00
2022-07-26T04:01:28.648Z,100496.97
2022-07-26T04:03:56.136Z,100500.47
2022-07-26T04:06:23.640Z,100503.44
2022-07-26T04:08:51.392Z,100496.69
2022-07-26T04:11:18.845Z,100493.63
2022-07-26T04:13:46.308Z,100491.94
2022-07-26T04:16:15.441Z,100495.66
2022-07-26T04:18:43.267Z,100491.75
2022-07-26T04:21:10.830Z,100494.06
2022-07-26T04:23:38.257Z,100500.75
2022-07-26T04:26:05.833Z,100502.59
2022-07-26T04:28:33.339Z,100499.28
2022-07-26T04:31:00.899Z,100499.47
2022-07-26T04:33:29.677Z,100496.78
2022-07-26T04:35:57.134Z,100495.09
2022-07-26T04:38:24.584Z,100503.44
2022-07-26T04:40:52.390Z,100502.34
2022-07-26T04:43:20.152Z,100507.28
2022-07-26T04:45:47.680Z,100511.25
2022-07-26T04:48:15.358Z,100511.88
2022-07-26T04:50:44.297Z,100515.81
2022-07-26T04:53:11.793Z,100515.34
2022-07-26T04:55:39.241Z,100517.59
2022-07-26T04:58:06.697Z,100528.69
2022-07-26T05:00:35.078Z,100527.56
2022-07-26T05:03:14.353Z,100524.50
2022-07-26T05:05:41.973Z,100524.13
2022-07-26T05:08:10.705Z,100536.13
2022-07-26T05:10:38.436Z,100530.75
2022-07-26T05:13:06.588Z,100523.22
2022-07-26T05:15:35.402Z,100531.13
2022-07-26T05:18:06.952Z,100526.47
2022-07-26T05:20:34.810Z,100543.53
2022-07-26T05:23:02.260Z,100545.03
2022-07-26T05:25:31.002Z,100548.34
2022-07-26T05:27:58.424Z,100552.06
2022-07-26T05:30:25.985Z,100550.59
2022-07-26T05:32:53.497Z,100551.53
2022-07-26T05:35:20.989Z,100554.69
2022-07-26T05:37:48.416Z,100548.91
2022-07-26T05:40:15.863Z,100556.78
2022-07-26T05:42:44.856Z,100568.16
2022-07-26T05:45:12.388Z,100571.19
2022-07-26T05:47:39.825Z,100563.78
2022-07-26T05:50:08.219Z,100574.16
2022-07-26T05:52:35.717Z,100572.84
2022-07-26T05:55:03.154Z,100566.56
2022-07-26T05:57:30.607Z,100565.28
2022-07-26T05:59:59.341Z,100566.56
2022-07-26T06:02:26.834Z,100557.94
2022-07-26T06:04:54.334Z,100569.88
2022-07-26T06:07:21.811Z,100571.94
2022-07-26T06:09:49.297Z,100572.31
2022-07-26T06:12:16.736Z,100581.31
2022-07-26T06:14:44.180Z,100579.28
2022-07-26T06:17:12.950Z,100570.19
2022-07-26T06:19:44.295Z,100580.09
2022-07-26T06:22:29.653Z,100582.06
2022-07-26T06:24:57.089Z,100579.81
2022-07-26T06:27:24.557Z,100581.31
2022-07-26T06:29:52.629Z,100584.66
2022-07-26T06:32:21.363Z,100586.53
2022-07-26T06:34:48.825Z,100585.41
2022-07-26T06:37:16.774Z,100588.28
2022-07-26T06:39:44.215Z,100589.75
2022-07-26T06:42:11.654Z,100594.94
2022-07-26T06:44:40.608Z,100591.53
2022-07-26T06:47:08.062Z,100583.75
2022-07-26T06:49:36.882Z,100585.56
2022-07-26T06:52:04.592Z,100577.31
2022-07-26T06:54:32.033Z,100576.94
2022-07-26T06:56:59.467Z,100582.50
2022-07-26T06:59:26.949Z,100589.84
2022-07-26T07:01:59.279Z,100590.22
2022-07-26T07:04:28.819Z,100587.81
2022-07-26T07:07:02.266Z,100592.63
2022-07-26T07:09:32.809Z,100600.69
2022-07-26T07:12:08.291Z,100595.06
2022-07-26T07:14:38.023Z,100600.63
2022-07-26T07:17:12.933Z,100601.44
2022-07-26T07:19:41.475Z,100597.66
2022-07-26T07:22:12.026Z,100595.88
2022-07-26T07:24:40.022Z,100600.72
2022-07-26T07:27:07.462Z,100594.28
2022-07-26T07:29:34.951Z,100594.66
2022-07-26T07:32:03.388Z,100605.06
2022-07-26T07:34:31.458Z,100605.06
2022-07-26T07:36:58.916Z,100605.53
2022-07-26T07:39:38.367Z,100613.63
2022-07-26T07:42:06.389Z,100605.38
2022-07-26T07:44:33.856Z,100617.22
2022-07-26T07:47:01.436Z,100612.31
2022-07-26T07:49:29.112Z,100610.06
2022-07-26T07:51:56.633Z,100606.41
2022-07-26T07:54:24.084Z,100610.75
2022-07-26T07:56:56.184Z,100599.50
2022-07-26T07:59:23.657Z,100613.81
2022-07-26T08:01:51.193Z,100608.59
2022-07-26T08:04:18.878Z,100598.75
2022-07-26T08:06:50.992Z,100603.97
2022-07-26T08:09:19.086Z,100608.50
2022-07-26T08:11:50.818Z,100609.78
2022-07-26T08:14:19.984Z,100597.63
2022-07-26T08:16:47.567Z,100609.09
2022-07-26T08:19:15.671Z,100606.19
2022-07-26T08:21:46.030Z,100608.88
2022-07-26T08:24:14.425Z,100606.19
2022-07-26T08:26:41.923Z,100612.06
2022-07-26T08:29:09.474Z,100610.84
2022-07-26T08:31:38.435Z,100602.56
2022-07-26T08:34:06.014Z,100610.00
2022-07-26T08:36:33.537Z,100599.44
2022-07-26T08:39:01.037Z,100605.53
2022-07-26T08:41:28.502Z,100608.59
2022-07-26T08:43:55.977Z,100612.13
2022-07-26T08:46:28.143Z,100616.78
2022-07-26T08:48:57.508Z,100612.50
2022-07-26T08:51:25.609Z,100614.16
2022-07-26T08:53:53.488Z,100611.75
2022-07-26T08:56:20.957Z,100609.53
2022-07-26T08:58:48.468Z,100611.84
2022-07-26T09:01:16.048Z,100622.03
2022-07-26T09:03:43.663Z,100623.44
2022-07-26T09:06:17.015Z,100623.91
2022-07-26T09:08:44.833Z,100621.97
2022-07-26T09:11:32.042Z,100634.19
2022-07-26T09:14:00.619Z,100630.03
2022-07-26T09:16:28.378Z,100630.88
2022-07-26T09:18:56.073Z,100618.31
2022-07-26T09:21:31.920Z,100628.44
2022-07-26T09:23:59.566Z,100620.66
2022-07-26T09:26:27.093Z,100620.38
2022-07-26T09:29:05.800Z,100618.72
2022-07-26T09:31:33.547Z,100627.44
2022-07-26T09:34:01.031Z,100613.69
2022-07-26T09:36:28.608Z,100619.28
2022-07-26T09:38:59.278Z,100624.25
2022-07-26T09:41:27.775Z,100620.28
2022-07-26T09:43:55.502Z,100621.28
2022-07-26T09:46:23.635Z,100626.31
2022-07-26T09:51:40.151Z,100631.41
2022-07-26T09:54:09.586Z,100627.34
2022-07-26T09:56:43.251Z,100624.94
2022-07-26T09:59:10.752Z,100626.06
2022-07-26T10:01:38.240Z,100616.13
2022-07-26T10:04:05.899Z,100616.59
2022-07-26T10:06:33.515Z,100611.84
2022-07-26T10:09:01.309Z,100607.50
2022-07-26T10:11:30.379Z,100625.53
2022-07-26T10:13:58.956Z,100616.41
2022-07-26T10:16:30.316Z,100621.41
2022-07-26T10:19:00.075Z,100614.81
2022-07-26T10:21:29.684Z,100613.63
2022-07-26T10:23:57.924Z,100622.16
2022-07-26T10:26:45.397Z,100615.03
2022-07-26T10:29:20.131Z,100621.22
2022-07-26T10:31:49.459Z,100621.69
2022-07-26T10:34:30.850Z,100613.72
2022-07-26T10:36:58.605Z,100619.09
2022-07-26T10:39:26.286Z,100618.16
2022-07-26T10:42:00.103Z,100624.38
2022-07-26T10:44:28.332Z,100622.69
2022-07-26T10:46:56.969Z,100625.56
2022-07-26T10:49:29.479Z,100631.31
2022-07-26T10:52:09.583Z,100634.28
2022-07-26T10:55:04.683Z,100634.97
2022-07-26T10:57:33.974Z,100639.13
2022-07-26T11:00:01.474Z,100636.50
2022-07-26T11:02:32.220Z,100632.81
2022-07-26T11:05:00.373Z,100630.41
2022-07-26T11:07:27.834Z,100634.56
2022-07-26T11:09:56.471Z,100625.22
2022-07-26T11:12:24.198Z,100624.75
2022-07-26T11:14:53.204Z,100628.91
2022-07-26T11:17:24.352Z,100628.44
2022-07-26T11:19:51.831Z,100631.13
2022-07-26T11:22:19.290Z,100640.31
2022-07-26T11:24:46.747Z,100645.53
2022-07-26T11:27:14.195Z,100637.72
2022-07-26T11:29:41.782Z,100643.28
2022-07-26T11:32:19.386Z,100638.06
2022-07-26T11:34:48.126Z,100631.75
2022-07-26T11:37:15.614Z,100632.03
2022-07-26T11:39:43.059Z,100635.31
2022-07-26T11:42:11.618Z,100628.53
2022-07-26T11:44:39.110Z,100622.78
2022-07-26T11:47:13.617Z,100629.03
2022-07-26T11:50:00.538Z,100627.78
2022-07-26T11:52:30.163Z,100625.19
2022-07-26T11:54:57.609Z,100628.53
2022-07-26T11:57:28.756Z,100629.38
2022-07-26T11:59:56.197Z,100627.78
2022-07-26T12:02:23.752Z,100627.50
2022-07-26T12:05:12.766Z,100629.47
2022-07-26T12:07:40.325Z,100625.75
2022-07-26T12:10:08.625Z,100631.03
2022-07-26T12:12:36.078Z,100628.06
2022-07-26T12:15:04.746Z,100632.69
2022-07-26T12:17:35.020Z,100631.31
2022-07-26T12:20:15.013Z,100637.16
2022-07-26T12:22:53.935Z,100631.31
2022-07-26T12:25:25.542Z,100641.13
2022-07-26T12:27:53.079Z,100639.94
2022-07-26T12:30:20.635Z,100646.13
2022-07-26T12:32:48.918Z,100641.03
2022-07-26T12:35:25.169Z,100675.81
2022-07-26T12:37:53.554Z,100691.00
2022-07-26T12:40:21.802Z,100704.81
2022-07-26T12:43:00.496Z,100711.56
2022-07-26T12:45:29.514Z,100716.22
2022-07-26T12:47:57.912Z,100715.50
2022-07-26T12:50:28.088Z,100730.09
2022-07-26T12:53:00.393Z,100722.31
2022-07-26T12:55:27.822Z,100730.19
2022-07-26T12:57:57.064Z,100734.19
2022-07-26T13:00:24.743Z,100732.44
2022-07-26T13:02:54.716Z,100748.28
2022-07-26T13:05:22.199Z,100748.22
2022-07-26T13:07:52.455Z,100748.06
2022-07-26T13:10:33.087Z,100754.91
2022-07-26T13:13:01.365Z,100749.16
2022-07-26T13:15:36.087Z,100759.75
2022-07-26T13:18:05.404Z,100764.00
2022-07-26T13:20:32.928Z,100772.50
2022-07-26T13:23:02.245Z,100758.81
2022-07-26T13:25:33.516Z,100755.19
2022-07-26T13:28:06.345Z,100771.31
2022-07-26T13:30:33.930Z,100784.59
2022-07-26T13:33:01.480Z,100779.88
2022-07-26T13:35:28.970Z,100773.47
2022-07-26T13:37:56.445Z,100772.28
2022-07-26T13:40:30.713Z,100772.91
2022-07-26T13:42:58.877Z,100768.88
2022-07-26T13:45:28.745Z,100772.84
2022-07-26T13:47:57.024Z,100774.91
2022-07-26T13:50:26.407Z,100770.13
2022-07-26T13:52:54.669Z,100770.03
2022-07-26T13:55:22.572Z,100782.44
2022-07-26T13:57:57.033Z,100770.50
2022-07-26T14:00:25.808Z,100774.19
2022-07-26T14:02:53.393Z,100775.31
2022-07-26T14:05:21.172Z,100769.84
2022-07-26T14:07:48.627Z,100774.84
2022-07-26T14:10:16.187Z,100766.59
2022-07-26T14:12:43.661Z,100774.13
2022-07-26T14:15:18.073Z,100763.19
2022-07-26T14:17:48.853Z,100759.13
2022-07-26T14:20:17.413Z,100764.50
2022-07-26T14:22:44.979Z,100767.38
2022-07-26T14:25:12.489Z,100774.13
2022-07-26T14:27:39.984Z,100780.03
2022-07-26T14:30:07.993Z,100774.66
2022-07-26T14:32:36.736Z,100778.22
2022-07-26T14:35:04.448Z,100775.69
2022-07-26T14:37:43.307Z,100777.53
2022-07-26T14:40:15.227Z,100773.66
2022-07-26T14:42:42.707Z,100776.34
2022-07-26T14:45:10.503Z,100773.31
2022-07-26T14:47:39.275Z,100776.66
2022-07-26T14:50:08.136Z,100792.44
2022-07-26T14:52:37.634Z,100787.56
2022-07-26T14:55:06.043Z,100794.13
2022-07-26T14:57:33.494Z,100786.75
2022-07-26T15:00:06.852Z,100794.34
2022-07-26T15:02:34.398Z,100792.19
2022-07-26T15:05:03.194Z,100794.56
2022-07-26T15:07:30.636Z,100798.66
2022-07-26T15:09:58.088Z,100795.97
2022-07-26T15:12:25.520Z,100799.78
2022-07-26T15:14:52.990Z,100794.91
2022-07-26T15:17:21.137Z,100797.13
2022-07-26T15:19:48.590Z,100797.59
2022-07-26T15:22:17.356Z,100804.31
2022-07-26T15:24:44.823Z,100800.94
2022-07-26T15:27:12.278Z,100798.81
2022-07-26T15:29:39.731Z,100792.88
2022-07-26T15:32:07.755Z,100780.38
2022-07-26T15:34:35.313Z,100795.97
2022-07-26T15:37:02.782Z,100788.88
2022-07-26T15:39:31.525Z,100789.72
2022-07-26T15:42:05.464Z,100792.94
2022-07-26T15:44:35.165Z,100788.72
2022-07-26T15:47:02.615Z,100787.56
2022-07-26T15:49:31.430Z,100791.06
2022-07-26T15:51:58.861Z,100784.56
2022-07-26T15:54:26.316Z,100779.50
2022-07-26T15:56:55.041Z,100785.38
2022-07-26T15:59:22.487Z,100787.03
2022-07-26T16:01:50.316Z,100786.56
2022-07-26T16:04:17.848Z,100792.63
2022-07-26T16:06:45.360Z,100780.31
2022-07-26T16:09:17.238Z,100789.72
2022-07-26T16:11:51.607Z,100787.50
2022-07-26T16:14:20.327Z,100783.00
2022-07-26T16:16:47.888Z,100774.34
2022-07-26T16:19:15.695Z,100782.91
2022-07-26T16:21:43.375Z,100781.72
2022-07-26T16:24:10.848Z,100780.59
2022-07-26T16:26:38.315Z,100781.44
2022-07-26T16:29:05.897Z,100789.16
2022-07-26T16:31:34.680Z,100792.47
2022-07-26T16:34:02.142Z,100784.41
2022-07-26T16:36:29.630Z,100787.94
2022-07-26T16:38:57.107Z,100787.94
2022-07-26T16:41:24.578Z,100787.09
2022-07-26T16:43:52.051Z,100794.75
2022-07-26T16:46:19.555Z,100791.53
2022-07-26T16:48:48.323Z,100792.84
2022-07-26T16:51:16.719Z,100794.22
2022-07-26T16:53:45.199Z,100792.34
2022-07-26T16:56:12.780Z,100793.34
2022-07-26T16:58:40.366Z,100794.69
2022-07-26T17:01:07.873Z,100796.53
2022-07-26T17:03:35.458Z,100790.78
2022-07-26T17:06:06.628Z,100787.09
2022-07-26T17:08:34.476Z,100795.34
2022-07-26T17:11:01.945Z,100790.66
2022-07-26T17:13:29.410Z,100794.41
2022-07-26T17:15:56.917Z,100791.53
2022-07-26T17:18:24.407Z,100787.81
2022-07-26T17:20:51.874Z,100793.19
2022-07-26T17:23:20.716Z,100787.81
2022-07-26T17:25:48.173Z,100793.84
2022-07-26T17:28:15.621Z,100790.88
2022-07-26T17:30:43.094Z,100789.66
2022-07-26T17:33:10.750Z,100794.41
2022-07-26T17:35:38.272Z,100795.88
2022-07-26T17:38:05.810Z,100796.25
2022-07-26T17:40:36.542Z,100801.34
2022-07-26T17:43:06.030Z,100798.66
2022-07-26T17:45:33.492Z,100795.97
2022-07-26T17:48:05.897Z,100799.66
2022-07-26T17:50:36.889Z,100804.50
2022-07-26T17:53:05.195Z,100797.97
2022-07-26T17:55:32.682Z,100796.28
2022-07-26T17:58:01.446Z,100799.66
2022-07-26T18:00:29.561Z,100797.78
2022-07-26T18:02:57.177Z,100801.34
2022-07-26T18:05:30.352Z,100797.97
2022-07-26T18:08:00.832Z,100802.50
2022-07-26T18:10:28.414Z,100802.50
2022-07-26T18:12:55.897Z,100803.34
2022-07-26T18:15:24.640Z,100812.59
2022-07-26T18:17:52.094Z,100806.38
2022-07-26T18:20:19.600Z,100807.38
2022-07-26T18:22:50.174Z,100816.44
2022-07-26T18:25:17.993Z,100810.75
2022-07-26T18:27:45.474Z,100821.34
2022-07-26T18:30:13.005Z,100824.19
2022-07-26T18:32:41.732Z,100817.50
2022-07-26T18:35:09.204Z,100818.53
2022-07-26T18:37:36.667Z,100822.25
2022-07-26T18:40:05.233Z,100827.97
2022-07-26T18:42:32.655Z,100836.84
2022-07-26T18:45:00.099Z,100840.41
2022-07-26T18:47:27.571Z,100832.34
2022-07-26T18:49:56.340Z,100840.41
2022-07-26T18:52:28.923Z,100840.41
2022-07-26T18:55:01.762Z,100851.31
2022-07-26T18:57:29.218Z,100841.41
2022-07-26T18:59:56.675Z,100848.63
2022-07-26T19:02:24.132Z,100857.34
2022-07-26T19:04:51.577Z,100857.88
2022-07-26T19:07:20.327Z,100858.69
2022-07-26T19:09:47.758Z,100860.72
2022-07-26T19:12:15.226Z,100860.72
2022-07-26T19:14:42.657Z,100865.28
2022-07-26T19:17:11.642Z,100855.53
2022-07-26T19:19:39.211Z,100863.25
2022-07-26T19:22:06.683Z,100863.41
2022-07-26T19:24:43.257Z,100869.66
2022-07-26T19:27:11.215Z,100869.28
2022-07-26T19:29:38.772Z,100875.34
2022-07-26T19:32:06.901Z,100879.69
2022-07-26T19:34:34.383Z,100884.06
2022-07-26T19:37:01.959Z,100885.06
2022-07-26T19:39:29.460Z,100885.25
2022-07-26T19:41:58.259Z,100884.41
2022-07-26T19:44:25.745Z,100884.41
2022-07-26T19:46:57.529Z,100886.28
2022-07-26T19:49:25.637Z,100888.47
2022-07-26T19:51:53.190Z,100895.50
2022-07-26T19:54:21.270Z,100896.16
2022-07-26T19:56:48.796Z,100902.75
2022-07-26T19:59:23.088Z,100902.25
2022-07-26T20:01:52.879Z,100904.28
2022-07-26T20:04:20.599Z,100899.56
2022-07-26T20:06:48.133Z,100900.88
2022-07-26T20:09:15.631Z,100901.91
2022-07-26T20:11:43.157Z,100908.28
2022-07-26T20:14:10.617Z,100913.34
2022-07-26T20:16:39.412Z,100916.03
2022-07-26T20:19:06.979Z,100910.34
2022-07-26T20:21:34.543Z,100917.22
2022-07-26T20:24:02.080Z,100911.84
2022-07-26T20:26:29.552Z,100916.03
2022-07-26T20:28:58.027Z,100911.97
2022-07-26T20:31:25.566Z,100911.97
2022-07-26T20:33:54.360Z,100912.34
2022-07-26T20:36:21.816Z,100913.34
2022-07-26T20:38:51.597Z,100909.81
2022-07-26T20:41:19.344Z,100923.09
2022-07-26T20:43:48.357Z,100920.41
2022-07-26T20:46:15.855Z,100928.81
2022-07-26T20:48:43.438Z,100928.81
2022-07-26T20:51:13.404Z,100930.84
2022-07-26T20:53:41.576Z,100928.50
2022-07-26T20:56:10.241Z,100935.06
2022-07-26T20:58:37.711Z,100927.53
2022-07-26T21:01:05.216Z,100926.00
2022-07-26T21:03:32.717Z,100925.66
2022-07-26T21:06:00.397Z,100933.56
2022-07-26T21:08:29.137Z,100934.38
2022-07-26T21:10:56.761Z,100940.25
2022-07-26T21:13:24.235Z,100943.09
2022-07-26T21:15:54.137Z,100947.63
2022-07-26T21:18:21.616Z,100941.59
2022-07-26T21:20:49.113Z,100947.97
2022-07-26T21:23:18.535Z,100943.78
2022-07-26T21:25:47.887Z,100953.50
2022-07-26T21:28:15.399Z,100953.03
2022-07-26T21:30:42.867Z,100956.75
2022-07-26T21:33:10.385Z,100954.88
2022-07-26T21:35:37.855Z,100959.44
2022-07-26T21:38:05.317Z,100965.97
2022-07-26T21:40:32.743Z,100969.69
2022-07-26T21:43:01.488Z,100965.97
2022-07-26T21:45:28.958Z,100970.50
2022-07-26T21:47:56.419Z,100972.16
2022-07-26T21:50:23.874Z,100975.88
2022-07-26T21:52:51.339Z,100976.88
2022-07-26T21:55:18.790Z,100977.91
2022-07-26T21:57:46.426Z,100979.06
2022-07-26T22:00:16.279Z,100994.34
2022-07-26T22:02:43.805Z,100993.69
2022-07-26T22:05:31.889Z,100994.69
2022-07-26T22:07:59.368Z,101000.41
2022-07-26T22:10:26.821Z,100997.88
2022-07-26T22:12:54.306Z,101006.09
2022-07-26T22:15:23.048Z,101012.34
2022-07-26T22:17:50.566Z,101006.97
2022-07-26T22:20:18.078Z,101013.16
2022-07-26T22:22:45.532Z,101015.03
2022-07-26T22:25:13.352Z,101016.00
2022-07-26T22:27:40.960Z,101018.31
2022-07-26T22:30:09.252Z,101027.75
2022-07-26T22:32:38.085Z,101023.19
2022-07-26T22:35:06.301Z,101025.22
2022-07-26T22:37:33.770Z,101024.22
2022-07-26T22:40:01.261Z,101028.22
2022-07-26T22:42:28.705Z,101043.03
2022-07-26T22:44:56.271Z,101031.41
2022-07-26T22:47:23.724Z,101038.16
2022-07-26T22:49:52.479Z,101037.13
2022-07-26T22:52:19.969Z,101040.34
2022-07-26T22:54:47.425Z,101047.22
2022-07-26T22:57:14.863Z,101039.16
2022-07-26T22:59:42.325Z,101044.19
2022-07-26T23:02:09.788Z,101048.91
2022-07-26T23:04:37.228Z,101044.34
2022-07-26T23:07:05.970Z,101039.00
2022-07-26T23:09:33.422Z,101049.56
2022-07-26T23:12:00.867Z,101052.78
2022-07-26T23:14:28.316Z,101050.56
2022-07-26T23:16:55.807Z,101053.09
2022-07-26T23:19:23.293Z,101060.47
2022-07-26T23:21:50.779Z,101054.09
2022-07-26T23:24:19.518Z,101060.47
2022-07-26T23:26:46.967Z,101056.09
2022-07-26T23:29:14.792Z,101054.59
2022-07-26T23:31:43.077Z,101054.59
2022-07-26T23:34:10.557Z,101057.13
2022-07-26T23:36:37.998Z,101060.47
2022-07-26T23:39:05.576Z,101056.75
2022-07-26T23:41:34.313Z,101056.75
2022-07-26T23:44:01.898Z,101055.44
2022-07-26T23:46:29.362Z,101049.06
2022-07-26T23:48:58.396Z,101041.00
2022-07-26T23:51:25.952Z,101039.66
2022-07-26T23:53:53.394Z,101047.53
2022-07-26T23:56:20.834Z,101055.44
2022-07-26T23:58:49.643Z,101044.34
